Southern California Logo

Westlake, CA Single Family Real Estate Listings

147 Total Real Estate Listings * Click on table heading to sort
Date Posted Property Type Style Address Price Living Area Lot Size Price/Sq Ft.
2017-11-20 Single Family Contemporary 1087 Vista Ridge Lane Westlake, CA 91362 $7,250,000 15,721 sq. ft. 76,666 sq. ft. $461
2017-11-20 Single Family 1781 Royal Saint George Drive Westlake, CA 91362 $1,599,000 2,672 sq. ft. 5,227 sq. ft. $598
2017-11-17 Single Family 2705 Elderoak Road Westlake, CA 91361 $7,995,000 10,188 sq. ft. 81,022 sq. ft. $785
2017-11-17 Single Family 2654 Yellowwood Drive Westlake, CA 91361 $1,465,000 3,719 sq. ft. 11,761 sq. ft. $394
2017-11-16 Single Family Spanish 1695 Shetland Place Westlake, CA 91362 $1,835,000 3,726 sq. ft. 9,583 sq. ft. $492
2017-11-16 Single Family 1661 Plum Hollow Circle Westlake, CA 91362 $1,175,000 2,458 sq. ft. 6,534 sq. ft. $478
2017-11-15 Single Family Mediterranean 1673 Plum Hollow Circle Westlake, CA 91362 $1,100,000 2,458 sq. ft. 5,227 sq. ft. $448
2017-11-13 Single Family 1219 Landsburn Circle Westlake, CA 91361 $2,400 924 sq. ft. 3,049 sq. ft. $3
2017-11-13 Single Family Traditional 5579 Grey Feather Court Westlake, CA 91362 $2,200,000 5,486 sq. ft. 20,473 sq. ft. $401
2017-11-13 Single Family 3260 Sawtooth Court Westlake, CA 91362 $985,000 2,781 sq. ft. 6,970 sq. ft. $354
2017-11-13 Single Family Spanish 5124 Oxley Place Westlake, CA 91362 $3,199,000 5,976 sq. ft. 30,492 sq. ft. $535
2017-11-13 Single Family Traditional 2518 Kirsten Lee Drive Westlake, CA 91361 $1,410,000 3,719 sq. ft. 14,810 sq. ft. $379
2017-11-11 Single Family 1082 Elfstone Court Westlake, CA 91361 $1,098,000 2,372 sq. ft. 7,405 sq. ft. $463
2017-11-11 Single Family 32055 Waterside Lane Westlake, CA 91361 $968,500 2,076 sq. ft. 2,614 sq. ft. $467
2017-11-11 Single Family 1528 Larkfield Avenue Westlake, CA 91362 $1,500,000 3,116 sq. ft. 20,038 sq. ft. $481
2017-11-10 Single Family Traditional 1740 Larkfield Avenue Westlake, CA 91362 $1,699,000 3,639 sq. ft. 20,038 sq. ft. $467
2017-11-09 Single Family Mediterranean 1403 Kingsboro Court Westlake, CA 91362 $3,195,000 6,077 sq. ft. 72,745 sq. ft. $526
2017-11-08 Single Family Traditional 1345 Southwind Circle Westlake, CA 91361 $1,895,000 2,785 sq. ft. 5,227 sq. ft. $680
2017-11-08 Single Family 87 Sherwood Drive Westlake, CA 91361 $449,900 1,440 sq. ft. 3,049 sq. ft. $312
2017-11-08 Single Family Traditional 452 Via Colinas Westlake, CA 91362 $599,999 1,332 sq. ft. 871 sq. ft. $450
2017-11-07 Single Family Cape Cod 4435 Regents Court Westlake, CA 91361 $1,099,000 2,700 sq. ft. 6,098 sq. ft. $407
2017-11-07 Single Family 2612 Yellowwood Drive Westlake, CA 91361 $1,529,000 4,258 sq. ft. 9,148 sq. ft. $359
2017-11-07 Single Family 5566 Little Fawn Court Westlake, CA 91362 $2,200,000 4,898 sq. ft. 20,473 sq. ft. $449
2017-11-06 Single Family Modern 242 Via Colinas Westlake, CA 91362 $597,000 1,251 sq. ft. 871 sq. ft. $477
2017-11-06 Single Family Traditional 31716 Kentfield Court Westlake, CA 91361 $949,000 2,312 sq. ft. 6,534 sq. ft. $410
2017-11-06 Single Family Mediterranean 3895 Peacock Court Westlake, CA 91362 $3,695,000 8,719 sq. ft. 230,432 sq. ft. $424
2017-11-05 Single Family Modern 2047 Bridgegate Court Westlake, CA 91361 $1,249,000 2,510 sq. ft. 8,276 sq. ft. $498
2017-11-04 Single Family Ranch 30918 Catarina Drive Westlake, CA 91362 $839,000 1,673 sq. ft. 9,583 sq. ft. $501
2017-11-02 Single Family 3265 Allegheny Court Westlake, CA 91362 $749,000 2,434 sq. ft. 6,970 sq. ft. $308
2017-11-02 Single Family Traditional 3219 Bayshore Drive Westlake, CA 91361 $994,990 2,545 sq. ft. 103,673 sq. ft. $391
2017-11-02 Single Family 1394 Redsail Circle Westlake, CA 91361 $1,950,000 3,093 sq. ft. 5,227 sq. ft. $630
2017-11-01 Single Family 153 Kings Place Westlake, CA 91361 $649,000 2,211 sq. ft. 10,890 sq. ft. $294
2017-11-01 Single Family French Country 4172 Oak Pl Drive Westlake, CA 91362 $2,750,000 7,114 sq. ft. 39,204 sq. ft. $387
2017-11-01 Single Family Mid Century 103 Lake Sherwood Drive Westlake, CA 91361 $1,399,000 1,510 sq. ft. 9,583 sq. ft. $926
2017-10-31 Single Family Mediterranean 1605 Vista Oaks Way Westlake, CA 91361 $1,790,000 3,775 sq. ft. 28,314 sq. ft. $474
2017-10-31 Single Family Mediterranean 3813 Mainsail Circle Westlake, CA 91361 $1,699,950 2,755 sq. ft. 4,792 sq. ft. $617
2017-10-31 Single Family 32128 Harborview Lane Westlake, CA 91361 $1,199,950 1,300 sq. ft. 3,049 sq. ft. $923
2017-10-30 Single Family Traditional 32214 Oakshore Drive Westlake, CA 91361 $3,600,000 3,762 sq. ft. 6,970 sq. ft. $957
2017-10-30 Single Family Contemporary 450 Via Colinas Westlake, CA 91362 $537,500 1,251 sq. ft. 871 sq. ft. $430
2017-10-30 Single Family 4663 Club View Drive Westlake, CA 91362 $939,000 2,219 sq. ft. 1,307 sq. ft. $423
2017-10-27 Single Family Traditional 517 Lakeview Canyon Road Westlake, CA 91362 $3,999,950 8,890 sq. ft. 466,092 sq. ft. $450
2017-10-27 Single Family Traditional 4926 Coyote Wells Circle Westlake, CA 91362 $1,325,000 3,346 sq. ft. 10,454 sq. ft. $396
2017-10-25 Single Family Ranch 531 Country Valley Road Westlake, CA 91362 $3,490,000 7,144 sq. ft. 73,181 sq. ft. $489
2017-10-24 Single Family 1512 Covington Avenue Westlake, CA 91361 $1,185,000 2,366 sq. ft. 6,534 sq. ft. $501
2017-10-24 Single Family 1556 Covington Avenue Westlake, CA 91361 $840,000 1,879 sq. ft. 6,534 sq. ft. $447
2017-10-24 Single Family 1662 Hawksway Court Westlake, CA 91361 $2,288,800 4,444 sq. ft. 15,246 sq. ft. $515
2017-10-23 Single Family 32116 Beachlake Lane Westlake, CA 91361 $859,000 1,947 sq. ft. 3,049 sq. ft. $441
2017-10-20 Single Family Traditional 1479 Aldercreek Place Westlake, CA 91362 $2,299,000 4,523 sq. ft. 26,572 sq. ft. $508
2017-10-19 Single Family Spanish 2565 Kirsten Lee Drive Westlake, CA 91361 $1,425,000 3,719 sq. ft. 12,632 sq. ft. $383
2017-10-13 Single Family Cape Cod 224 Stafford Road Westlake, CA 91361 $10,750,000 10,700 sq. ft. 52,272 sq. ft. $1,005
2017-10-13 Single Family 738 Coral Ridge Court Westlake, CA 91361 $1,699,000 3,501 sq. ft. 16,553 sq. ft. $485
2017-10-13 Single Family Contemporary 27 Via Colinas Westlake, CA 91362 $413,000 984 sq. ft. 436 sq. ft. $420
2017-10-12 Single Family Mediterranean 518 Lakeview Canyon Road Westlake, CA 91362 $3,800,000 7,498 sq. ft. 56,628 sq. ft. $507
2017-10-11 Single Family Traditional 31609 Village School Road Westlake, CA 91361 $1,125,000 2,371 sq. ft. 6,970 sq. ft. $474
2017-10-10 Single Family Contemporary 847 Sunstone Street Westlake, CA 91362 $759,000 2,057 sq. ft. 1,307 sq. ft. $369
2017-10-09 Single Family 3642 Summershore Lane Westlake, CA 91361 $565,000 1,195 sq. ft. 4,356 sq. ft. $473
2017-10-06 Single Family 0 Giles Road Westlake, CA 91361 $7,875,000 7,500 sq. ft. 52,708 sq. ft. $1,050
2017-10-06 Single Family 961 Via Colinas Westlake, CA 91362 $555,000 1,332 sq. ft. 436 sq. ft. $417
2017-10-06 Single Family Mediterranean 31702 Bainbrook Court Westlake, CA 91361 $1,119,000 2,420 sq. ft. 6,970 sq. ft. $462
2017-10-05 Single Family Post Modern 3949 Cloverleaf Street Westlake, CA 91362 $1,825,000 3,940 sq. ft. 28,314 sq. ft. $463
2017-10-05 Single Family French; French Country; Mediterranean 2939 Morvale Drive Westlake, CA 91361 $2,775,000 4,276 sq. ft. 53,143 sq. ft. $649
2017-10-03 Single Family 31640 Saddletree Drive Westlake, CA 91361 $3,425,000 7,750 sq. ft. 39,640 sq. ft. $442
2017-10-02 Single Family 4515 Valley Spring Drive Westlake, CA 91362 $1,695,000 4,695 sq. ft. 20,909 sq. ft. $361
2017-10-02 Single Family 32610 Bowman Knoll Drive Westlake, CA 91361 $1,388,000 3,204 sq. ft. 11,761 sq. ft. $433
2017-09-30 Single Family Modern; Ranch 146 Sherwood Drive Westlake, CA 91361 $619,000 1,384 sq. ft. 10,454 sq. ft. $447
2017-09-30 Single Family Cape Cod 2965 Winding Lane Westlake, CA 91361 $835,000 1,967 sq. ft. 5,663 sq. ft. $425
2017-09-29 Single Family Spanish 4512 Sevenoaks Court Westlake, CA 91361 $1,025,000 2,372 sq. ft. 8,276 sq. ft. $432
2017-09-29 Single Family French 4354 Hunt Club Lane Westlake, CA 91361 $2,550,000 5,480 sq. ft. 28,314 sq. ft. $465
2017-09-29 Single Family French Country; Mediterranean; Spanish; Tuscan 1880 Collingswood Court Westlake, CA 91362 $4,550,000 9,136 sq. ft. 106,286 sq. ft. $498
2017-09-29 Single Family 1611 Bridgegate Street Westlake, CA 91361 $834,888 1,605 sq. ft. 10,019 sq. ft. $520
2017-09-29 Single Family Traditional 1077 Freeport Court Westlake, CA 91361 $965,000 2,227 sq. ft. 6,970 sq. ft. $433
2017-09-28 Single Family Contemporary 32170 Beachlake Lane Lane Westlake, CA 91361 $1,450,000 1,947 sq. ft. 3,485 sq. ft. $745
2017-09-27 Single Family 816 Stafford Road Westlake, CA 91361 $3,320,000 5,879 sq. ft. 14,810 sq. ft. $565
2017-09-26 Single Family Spanish 4100 Valley Spring Drive Westlake, CA 91362 $2,495,000 4,726 sq. ft. 28,314 sq. ft. $528
2017-09-25 Single Family Cape Cod 32108 Beachview Lane Westlake, CA 91361 $739,000 1,753 sq. ft. 3,049 sq. ft. $422
2017-09-22 Single Family Contemporary 1176 Westlake Boulevard Westlake, CA 91361 $679,000 1,750 sq. ft. 3,920 sq. ft. $388
2017-09-22 Single Family 1233 Woodland Grove Court Westlake, CA 91362 $11,900,000 14,000 sq. ft. 191,228 sq. ft. $850
2017-09-22 Single Family Spanish 1932 Stonesgate Street Westlake, CA 91361 $1,099,000 2,458 sq. ft. 20,038 sq. ft. $447
2017-09-20 Single Family 2454 Swanfield Court Westlake, CA 91361 $1,599,000 2,835 sq. ft. 1,307 sq. ft. $564
2017-09-20 Single Family Contemporary; Tuscan 988 Country Valley Road Westlake, CA 91362 $4,295,000 7,930 sq. ft. 49,658 sq. ft. $542
2017-09-19 Single Family 279 Garden Drive Westlake, CA 91361 $4,795,000 5,590 sq. ft. 21,780 sq. ft. $858
2017-09-19 Single Family 5032 Hunter Valley Lane Westlake, CA 91362 $3,000,000 7,087 sq. ft. 44,867 sq. ft. $423
2017-09-18 Single Family 2186 Marshbrook Road Westlake, CA 91361 $4,800,000 10,090 sq. ft. 41,382 sq. ft. $476
2017-09-16 Single Family 893 Via Colinas Westlake, CA 91362 $539,000 1,251 sq. ft. 871 sq. ft. $431
2017-09-15 Single Family 4787 Windhaven Drive Westlake, CA 91362 $15,500,000 16,702 sq. ft. 207,781 sq. ft. $928
2017-09-15 Single Family Mediterranean; Spanish 4721 Canterbury Street Westlake, CA 91362 $1,425,000 3,051 sq. ft. 18,731 sq. ft. $467
2017-09-14 Single Family 211 Sundown Road Westlake, CA 91361 $2,389,000 3,624 sq. ft. 164,657 sq. ft. $659
2017-09-14 Single Family English; Traditional Westlake, CA $1,100,000 2,824 sq. ft. 8,276 sq. ft. $390
2017-09-12 Single Family Mediterranean 4395 Rayburn Street Westlake, CA 91362 $3,795,000 7,529 sq. ft. 104,980 sq. ft. $504
2017-09-11 Single Family 1332 Bluesail Circle Westlake, CA 91361 $1,745,000 2,359 sq. ft. 5,227 sq. ft. $740
2017-09-11 Single Family Architectural 3722 Summershore Lane Westlake, CA 91361 $535,000 1,195 sq. ft. 489,614 sq. ft. $448
2017-09-05 Single Family 991 Vista Ridge Lane Westlake, CA 91362 $4,395,000 8,557 sq. ft. 82,764 sq. ft. $514
2017-08-31 Single Family Contemporary; Mediterranean 4289 Coachman Circle Westlake, CA 91362 $2,695,000 4,536 sq. ft. 57,935 sq. ft. $594
2017-08-30 Single Family Traditional 2015 Glastonbury Road Westlake, CA 91361 $1,199,000 3,106 sq. ft. 10,454 sq. ft. $386
2017-08-29 Single Family 32038 Watergate Court Westlake, CA 91361 $999,000 2,512 sq. ft. 10,454 sq. ft. $398
2017-08-28 Single Family 167 Little John Lane Westlake, CA 91361 $549,900 1,312 sq. ft. 5,227 sq. ft. $419
2017-08-28 Single Family Traditional 112 Hampstead Court Westlake, CA 91361 $3,699,000 5,065 sq. ft. 21,344 sq. ft. $730
2017-08-25 Single Family 2396 Stafford Road Westlake, CA 91361 $3,495,000 5,585 sq. ft. 13,504 sq. ft. $626
2017-08-25 Single Family Other 2237 Kelmscott Court Westlake, CA 91361 $1,199,600 2,340 sq. ft. 11,761 sq. ft. $513
2017-08-22 Single Family 2382 Leeward Circle Westlake, CA 91361 $1,199,000 1,609 sq. ft. 5,663 sq. ft. $745
2017-08-21 Single Family 637 Arroyo Oaks Drive Westlake, CA 91362 $639,950 1,949 sq. ft. 871 sq. ft. $328
2017-08-21 Single Family Spanish 1600 Castleview Court Westlake, CA 91361 $959,999 2,480 sq. ft. 23,087 sq. ft. $387
2017-08-20 Single Family 2144 Bridgegate Court Westlake, CA 91361 $1,095,000 2,300 sq. ft. 8,276 sq. ft. $476
2017-08-18 Single Family Tudor 1707 Shetland Place Westlake, CA 91362 $1,750,000 3,996 sq. ft. 20,038 sq. ft. $438
2017-08-17 Single Family 5374 Lakeview Canyon Road Westlake, CA 91362 $2,195,000 5,037 sq. ft. 59,677 sq. ft. $436
2017-08-16 Single Family 2268 Shadow Spring Place Westlake, CA 91361 $1,200,000 3,128 sq. ft. 6,970 sq. ft. $384
2017-08-12 Single Family Traditional 3319 View Pointe Drive Westlake, CA 91361 $788,000 2,242 sq. ft. 2,178 sq. ft. $351
2017-08-10 Single Family Mediterranean 2223 Kelmscott Court Westlake, CA 91361 $1,465,000 2,823 sq. ft. 21,344 sq. ft. $519
2017-08-09 Single Family Spanish 4432 Yorkfield Court Westlake, CA 91361 $1,120,000 3,329 sq. ft. 8,276 sq. ft. $336
2017-08-08 Single Family 1683 Shetland Place Westlake, CA 91362 $1,949,500 6,502 sq. ft. 20,038 sq. ft. $300
2017-08-07 Single Family Hacienda; Mediterranean 31625 Rustic Oak Drive Westlake, CA 91361 $1,699,900 2,914 sq. ft. 19,602 sq. ft. $583
2017-08-07 Single Family Mediterranean 1118 Country Valley Road Westlake, CA 91362 $4,500,000 6,869 sq. ft. 95,396 sq. ft. $655
2017-08-03 Single Family Cape Cod 5694 Starwood Court Westlake, CA 91362 $769,000 2,145 sq. ft. 1,307 sq. ft. $359
2017-08-03 Single Family 1170 Westlake Boulevard Westlake, CA 91361 $649,000 1,829 sq. ft. 3,920 sq. ft. $355
2017-08-02 Single Family Traditional 32609 Bowman Knoll Drive Westlake, CA 91361 $1,449,000 3,337 sq. ft. 39,204 sq. ft. $434
2017-08-01 Single Family Cape Cod 3008 Shadow Brook Lane Westlake, CA 91361 $799,000 2,752 sq. ft. 4,792 sq. ft. $290
2017-08-01 Single Family Traditional 3828 Charthouse Circle Westlake, CA 91361 $2,699,000 2,838 sq. ft. 10,890 sq. ft. $951
2017-07-31 Single Family Contemporary; Spanish 32417 Lake Pleasant Drive Westlake, CA 91361 $1,700,000 2,946 sq. ft. 16,117 sq. ft. $577
2017-07-25 Single Family Contemporary; Modern; Traditional 1623 Upper Ranch Road Westlake, CA 91362 $2,595,000 6,033 sq. ft. 20,473 sq. ft. $430
2017-07-21 Single Family Traditional 3254 Sierra Drive Westlake, CA 91362 $899,950 2,637 sq. ft. 6,970 sq. ft. $341
2017-07-20 Single Family 4546 Rayburn Street Westlake, CA 91362 $1,265,000 3,096 sq. ft. 6,534 sq. ft. $409
2017-07-19 Single Family 806 Sunstone Street Westlake, CA 91362 $819,900 2,367 sq. ft. 1,307 sq. ft. $346
2017-07-18 Single Family Traditional 1380 Windy Mountain Avenue Westlake, CA 91362 $2,475,000 5,427 sq. ft. 21,780 sq. ft. $456
2017-07-18 Single Family 5424 Island Forest Place Westlake, CA 91362 $2,750,000 8,989 sq. ft. 70,132 sq. ft. $306
2017-07-14 Single Family 1134 Country Valley Road Westlake, CA 91362 $3,599,000 7,100 sq. ft. 54,886 sq. ft. $507
2017-07-14 Single Family Mediterranean 3906 Fairbreeze Circle Westlake, CA 91361 $3,225,000 4,000 sq. ft. 6,098 sq. ft. $806
2017-07-11 Single Family Traditional 1658 Elstow Court Westlake, CA 91361 $1,095,000 2,490 sq. ft. 19,602 sq. ft. $440
2017-07-05 Single Family Traditional 1736 Yarnton Street Westlake, CA 91361 $1,575,000 3,561 sq. ft. 10,890 sq. ft. $442
2017-07-05 Single Family 4708 Canterbury Street Westlake, CA 91362 $1,799,000 3,502 sq. ft. 6,534 sq. ft. $514
2017-06-26 Single Family Mediterranean 5678 White Cloud Circle Westlake, CA 91362 $3,000,000 7,000 sq. ft. 43,560 sq. ft. $429
2017-06-25 Single Family Mediterranean 1087 Vista Ridge Lane Westlake, CA 91362 $7,900,000 15,721 sq. ft. 76,666 sq. ft. $503
2017-06-15 Single Family 4090 Cresthaven Drive Westlake, CA 91362 $1,840,000 3,499 sq. ft. 28,750 sq. ft. $526
2017-06-12 Single Family 32573 Fallview Road Westlake, CA 91361 $1,249,000 3,336 sq. ft. 8,712 sq. ft. $374
2017-06-02 Single Family Contemporary; Modern; Ranch; Traditional 5648 Golden Knoll Court Westlake, CA 91362 $1,300,000 3,183 sq. ft. 27,007 sq. ft. $408
2017-06-01 Single Family Traditional 32250 Oakshore Drive Westlake, CA 91361 $2,175,000 2,650 sq. ft. 5,227 sq. ft. $821
2017-05-31 Single Family Architectural; Colonial; Traditional 946 Stafford Road Westlake, CA 91361 $4,295,000 6,518 sq. ft. 26,572 sq. ft. $659
2017-05-31 Single Family Mediterranean; Spanish; Tuscan; Villa 2803 Hemingsford Way Westlake, CA 91361 $4,995,000 7,806 sq. ft. 22,216 sq. ft. $640
2017-04-27 Single Family Traditional 1488 Pathfinder Avenue Westlake, CA 91362 $2,849,900 5,712 sq. ft. 20,038 sq. ft. $499
2017-04-19 Single Family 4128 Valley Spring Drive Westlake, CA 91362 $1,450,000 3,100 sq. ft. 20,038 sq. ft. $468
2017-04-18 Single Family Mediterranean 5592 Little Fawn Court Westlake, CA 91362 $1,988,000 4,170 sq. ft. 20,473 sq. ft. $477
2017-04-18 Single Family Traditional 2267 Westshore Lane Westlake, CA 91361 $1,769,000 2,051 sq. ft. 8,276 sq. ft. $863
2017-03-31 Single Family 177 Queens Garden Drive Westlake, CA 91361 $3,395,000 5,044 sq. ft. 34,412 sq. ft. $673
2017-03-08 Single Family Mediterranean 774 Lakeview Canyon Road Westlake, CA 91362 $3,999,000 7,484 sq. ft. 141,134 sq. ft. $534
2017-03-06 Single Family Contemporary; Traditional 1335 Heritage Place Westlake, CA 91362 $2,798,000 7,333 sq. ft. 44,867 sq. ft. $382
2016-07-01 Single Family 3500 Ridgeford Drive Westlake, CA 91361 $1,850,000 4,457 sq. ft. 22,216 sq. ft. $415
2016-02-29 Single Family Mediterranean 955 Vista Ridge Lane Westlake, CA 91362 $9,990,000 15,835 sq. ft. 187,308 sq. ft. $631
2016-01-11 Single Family Mediterranean 3855 Brunston Court Westlake, CA 91362 $4,500,000 9,627 sq. ft. 407,722 sq. ft. $467